This is the latest recevied weather packets stored in our database for station/object YO4TNV-15. If no packets are shown the sender has not sent any weather packets the latest 10 day(s).
| Time | Temp. | Humidity | Pressure | Rain* | Wind** | Luminosity | Snow |
|---|---|---|---|---|---|---|---|
| 1777690352 | 8.33° C | 65% | 1009.6 hPa | - | - | - | - |
| 1777690341 | 8.33° C | 65% | 1009.6 hPa | - | - | - | - |
| 1777689448 | 8.33° C | 65% | 1009.6 hPa | - | - | - | - |
| 1777689440 | 8.33° C | 65% | 1009.6 hPa | - | - | - | - |
| 1777688552 | 7.78° C | 68% | 1009.6 hPa | - | - | - | - |
| 1777688540 | 7.78° C | 68% | 1009.6 hPa | - | - | - | - |
| 1777687648 | 8.89° C | 63% | 1009.6 hPa | - | - | - | - |
| 1777687640 | 8.89° C | 63% | 1009.6 hPa | - | - | - | - |
| 1777686748 | 9.44° C | 56% | 1009.5 hPa | - | - | - | - |
| 1777686739 | 9.44° C | 56% | 1009.5 hPa | - | - | - | - |
| 1777685848 | 9.44° C | 56% | 1009.5 hPa | - | - | - | - |
| 1777685839 | 9.44° C | 56% | 1009.5 hPa | - | - | - | - |
| 1777684947 | 9.44° C | 57% | 1009.6 hPa | - | - | - | - |
| 1777684939 | 9.44° C | 57% | 1009.6 hPa | - | - | - | - |
| 1777684047 | 9.44° C | 57% | 1009.6 hPa | - | - | - | - |
| 1777684039 | 9.44° C | 57% | 1009.6 hPa | - | - | - | - |
| 1777683148 | 9.44° C | 59% | 1009.6 hPa | - | - | - | - |
| 1777683139 | 9.44° C | 59% | 1009.6 hPa | - | - | - | - |
| 1777682247 | 9.44° C | 62% | 1009.7 hPa | - | - | - | - |
| 1777682239 | 9.44° C | 62% | 1009.7 hPa | - | - | - | - |
| 1777681347 | 10° C | 55% | 1009.7 hPa | - | - | - | - |
| 1777681339 | 10° C | 55% | 1009.7 hPa | - | - | - | - |
| 1777680447 | 9.44° C | 59% | 1009.7 hPa | - | - | - | - |
| 1777679546 | 9.44° C | 60% | 1009.7 hPa | - | - | - | - |
| 1777679538 | 9.44° C | 60% | 1009.7 hPa | - | - | - | - |
* Rain since midnight (hover to see other rain measurements)
** Current wind speed in m/s (hover to see current wind gust speed)